Time;durP1;ratioP1;P1;durP2;ratioP2;P2;SDS_P1;SDS_P2;PMS_P1;PMS_P2;Temp;Humidity;BMP_temperature;BMP_pressure;BME280_temperature;BME280_humidity;BME280_pressure;Samples;Min_cycle;Max_cycle;Signal;HPM_P1;HPM_P2
2022/10/07 00:02:01;;;;;;;12.73;6.18;;;;;;;14.10;100.00;97393.91;5043196;28;20225;-72
2022/10/07 00:04:27;;;;;;;10.23;5.53;;;;;;;14.05;100.00;97390.91;5042767;28;20212;-72
2022/10/07 00:06:54;;;;;;;12.48;6.35;;;;;;;14.05;100.00;97390.91;5043469;28;20209;-72
2022/10/07 00:09:20;;;;;;;9.38;6.45;;;;;;;14.05;100.00;97393.56;5043863;28;20201;-72
2022/10/07 00:11:47;;;;;;;15.60;5.82;;;;;;;14.06;100.00;97392.56;5043483;28;20229;-72
2022/10/07 00:14:13;;;;;;;14.13;6.47;;;;;;;14.06;100.00;97390.75;5046819;28;20217;-72
2022/10/07 00:16:41;;;;;;;11.43;5.88;;;;;;;14.11;100.00;97391.06;5047178;28;20202;-72
2022/10/07 00:19:12;;;;;;;12.30;6.95;;;;;;;14.17;100.00;97387.75;5046725;28;20212;-72
2022/10/07 00:21:40;;;;;;;8.57;5.45;;;;;;;14.14;100.00;97392.56;5046620;28;20229;-72
2022/10/07 00:24:09;;;;;;;12.40;6.00;;;;;;;14.07;100.00;97389.72;5046526;28;20667;-72
2022/10/07 00:26:36;;;;;;;11.00;6.13;;;;;;;14.12;100.00;97386.63;5047090;28;20309;-72
2022/10/07 00:29:05;;;;;;;11.82;6.68;;;;;;;14.14;100.00;97379.31;5047008;28;20216;-72
2022/10/07 00:31:33;;;;;;;11.85;5.70;;;;;;;14.15;100.00;97379.16;5046659;28;20217;-72
2022/10/07 00:34:01;;;;;;;12.50;6.20;;;;;;;14.13;100.00;97382.97;5045973;28;20225;-72
2022/10/07 00:36:30;;;;;;;13.43;5.90;;;;;;;14.18;100.00;97370.84;5046462;28;20209;-72
2022/10/07 00:38:58;;;;;;;9.77;5.53;;;;;;;14.15;100.00;97373.00;5046991;28;20209;-72
2022/10/07 00:41:27;;;;;;;10.48;5.47;;;;;;;14.13;100.00;97367.06;5047084;28;20228;-72
2022/10/07 00:43:54;;;;;;;10.77;5.82;;;;;;;14.06;100.00;97360.75;5046095;28;20213;-72
2022/10/07 00:46:29;;;;;;;14.30;6.18;;;;;;;14.19;100.00;97361.06;5046650;28;20452;-72
2022/10/07 00:49:00;;;;;;;14.50;6.35;;;;;;;14.12;100.00;97360.09;5046721;28;20212;-72
2022/10/07 00:51:30;;;;;;;9.75;5.78;;;;;;;14.05;100.00;97353.78;5046481;28;20217;-72
2022/10/07 00:53:57;;;;;;;11.70;5.90;;;;;;;14.10;100.00;97352.34;5045894;28;20227;-72
2022/10/07 00:56:25;;;;;;;12.05;5.97;;;;;;;14.15;100.00;97346.50;5046860;28;20213;-72
2022/10/07 00:58:52;;;;;;;10.93;5.90;;;;;;;14.08;100.00;97349.00;5046416;28;20210;-72
2022/10/07 01:01:20;;;;;;;12.52;6.80;;;;;;;14.16;100.00;97334.91;5046562;28;20383;-72
2022/10/07 01:03:48;;;;;;;14.40;6.05;;;;;;;14.13;100.00;97340.56;5046313;28;20204;-72
2022/10/07 01:06:16;;;;;;;16.27;6.95;;;;;;;14.11;100.00;97342.53;5046420;28;20205;-72
2022/10/07 01:08:46;;;;;;;16.67;5.93;;;;;;;14.18;100.00;97330.28;5046416;28;20201;-72
2022/10/07 01:11:25;;;;;;;12.00;6.50;;;;;;;14.19;100.00;97329.25;5045430;28;20228;-72
2022/10/07 01:14:02;;;;;;;13.98;6.28;;;;;;;14.12;100.00;97323.00;5045565;28;20216;-72
2022/10/07 01:16:34;;;;;;;11.73;6.28;;;;;;;14.15;100.00;97317.34;5046331;28;20205;-72
2022/10/07 01:19:12;;;;;;;8.65;5.72;;;;;;;14.19;100.00;97323.94;5045898;28;20248;-72
2022/10/07 01:21:45;;;;;;;13.18;5.85;;;;;;;14.18;100.00;97319.66;5045791;28;20216;-72
2022/10/07 01:24:32;;;;;;;14.65;6.40;;;;;;;14.22;100.00;97318.31;5044933;28;20209;-72
2022/10/07 01:27:03;;;;;;;12.65;5.72;;;;;;;14.11;100.00;97310.72;5045603;28;20723;-72
2022/10/07 01:29:35;;;;;;;14.40;6.55;;;;;;;14.09;100.00;97305.63;5045758;28;20216;-72
2022/10/07 01:32:05;;;;;;;9.93;6.35;;;;;;;14.11;100.00;97311.56;5045906;28;20740;-72
2022/10/07 01:34:34;;;;;;;10.68;5.80;;;;;;;14.12;100.00;97301.78;5045643;28;20197;-72
2022/10/07 01:37:03;;;;;;;10.23;6.00;;;;;;;14.16;100.00;97308.41;5046108;28;20208;-72
2022/10/07 01:39:34;;;;;;;10.40;5.55;;;;;;;14.20;100.00;97299.91;5045526;28;20201;-72
2022/10/07 01:42:02;;;;;;;9.00;5.38;;;;;;;14.18;100.00;97301.94;5045636;28;20225;-72
2022/10/07 01:44:30;;;;;;;10.25;5.30;;;;;;;14.14;100.00;97286.53;5045534;28;20197;-72
2022/10/07 01:46:57;;;;;;;11.05;5.50;;;;;;;14.13;100.00;97288.34;5044583;28;20378;-72
2022/10/07 01:49:23;;;;;;;11.20;5.90;;;;;;;14.07;100.00;97282.91;5045603;28;20213;-72
2022/10/07 01:52:07;;;;;;;10.07;5.45;;;;;;;14.22;100.00;97286.50;5045654;28;20221;-72
2022/10/07 01:54:43;;;;;;;7.57;4.57;;;;;;;14.20;100.00;97286.66;5044969;28;20228;-72
2022/10/07 01:57:25;;;;;;;10.93;5.43;;;;;;;14.23;100.00;97282.81;5045322;28;20205;-72
2022/10/07 02:00:08;;;;;;;16.55;5.18;;;;;;;14.25;100.00;97278.19;5045402;28;20209;-72
2022/10/07 02:02:48;;;;;;;8.88;4.72;;;;;;;14.20;100.00;97285.84;5045330;28;20197;-72
2022/10/07 02:05:24;;;;;;;8.18;4.93;;;;;;;14.13;100.00;97272.47;5045252;28;20205;-72
2022/10/07 02:08:06;;;;;;;9.00;5.13;;;;;;;14.21;100.00;97282.19;5045824;28;20292;-72
2022/10/07 02:10:40;;;;;;;9.05;5.13;;;;;;;14.19;100.00;97276.22;5045211;28;20225;-72
2022/10/07 02:13:12;;;;;;;12.05;5.65;;;;;;;14.16;100.00;97276.59;5044827;28;20571;-72
2022/10/07 02:15:44;;;;;;;9.20;5.55;;;;;;;14.15;100.00;97272.28;5044962;28;20687;-72
2022/10/07 02:18:14;;;;;;;10.07;5.82;;;;;;;14.14;100.00;97270.63;5045434;28;20599;-72
2022/10/07 02:20:45;;;;;;;12.73;5.68;;;;;;;14.10;100.00;97270.16;5044995;28;20220;-72
2022/10/07 02:23:13;;;;;;;9.70;6.00;;;;;;;14.08;100.00;97268.69;5044985;28;20251;-72
2022/10/07 02:25:46;;;;;;;9.32;6.03;;;;;;;14.14;100.00;97262.66;5044845;28;20217;-72
2022/10/07 02:28:15;;;;;;;13.35;6.75;;;;;;;14.11;100.00;97265.69;5045581;28;20916;-72
2022/10/07 02:30:44;;;;;;;10.10;5.93;;;;;;;14.08;100.00;97263.38;5045604;28;20225;-72
2022/10/07 02:33:12;;;;;;;13.15;6.47;;;;;;;14.10;100.00;97261.38;5044653;28;20224;-72
2022/10/07 02:35:45;;;;;;;11.57;6.65;;;;;;;14.15;100.00;97259.88;5044964;28;20197;-72
2022/10/07 02:38:14;;;;;;;13.55;7.03;;;;;;;14.12;100.00;97256.72;5045040;28;20646;-72
2022/10/07 02:40:43;;;;;;;11.02;6.47;;;;;;;14.09;100.00;97254.41;5044757;28;20227;-72
2022/10/07 02:43:19;;;;;;;11.40;6.45;;;;;;;14.13;100.00;97261.03;5044513;28;20201;-72
2022/10/07 02:45:54;;;;;;;11.13;6.97;;;;;;;14.14;100.00;97260.00;5044670;28;20205;-72
2022/10/07 02:48:26;;;;;;;15.82;6.80;;;;;;;14.13;100.00;97255.75;5044673;28;20216;-72
2022/10/07 02:50:59;;;;;;;15.43;7.32;;;;;;;14.11;100.00;97252.41;5045269;28;20584;-72
2022/10/07 02:53:28;;;;;;;15.65;7.30;;;;;;;14.11;100.00;97252.41;5043363;28;20221;-72
2022/10/07 02:55:56;;;;;;;12.90;7.22;;;;;;;14.10;100.00;97250.75;5044722;28;20232;-72
2022/10/07 02:58:26;;;;;;;10.30;6.60;;;;;;;14.11;100.00;97249.78;5043178;28;20201;-72
2022/10/07 03:00:58;;;;;;;12.45;6.43;;;;;;;14.14;100.00;97241.47;5044284;28;20729;-72
2022/10/07 03:03:25;;;;;;;11.50;7.20;;;;;;;14.06;100.00;97242.31;5044319;28;20209;-72
2022/10/07 03:05:52;;;;;;;11.98;6.68;;;;;;;14.06;100.00;97238.81;5044502;28;20216;-72
2022/10/07 03:08:21;;;;;;;14.38;7.35;;;;;;;14.06;100.00;97241.47;5044048;28;20205;-72
2022/10/07 03:10:48;;;;;;;11.80;7.07;;;;;;;14.00;100.00;97242.16;5044318;28;20717;-72
2022/10/07 03:13:15;;;;;;;17.02;7.22;;;;;;;13.97;100.00;97236.41;5043949;28;20221;-72
2022/10/07 03:15:43;;;;;;;13.13;7.20;;;;;;;14.07;100.00;97241.31;5043624;28;20231;-72
2022/10/07 03:18:24;;;;;;;11.88;7.13;;;;;;;13.97;100.00;97236.41;5043931;28;20212;-72
2022/10/07 03:20:52;;;;;;;16.02;8.10;;;;;;;13.98;100.00;97242.34;5044106;28;20225;-72
2022/10/07 03:23:18;;;;;;;15.60;7.20;;;;;;;13.96;100.00;97238.22;5043845;28;20232;-72
2022/10/07 03:25:48;;;;;;;12.70;7.05;;;;;;;14.07;100.00;97235.19;5044476;28;20681;-72
2022/10/07 03:28:15;;;;;;;16.90;7.32;;;;;;;13.94;100.00;97239.38;5044053;28;20571;-72
2022/10/07 03:30:43;;;;;;;14.10;7.40;;;;;;;14.01;100.00;97231.41;5044097;28;20916;-72
2022/10/07 03:33:09;;;;;;;13.38;6.88;;;;;;;13.93;100.00;97227.16;5043462;28;20713;-72
2022/10/07 03:35:36;;;;;;;14.85;7.07;;;;;;;13.97;100.00;97225.81;5044015;28;20211;-72
2022/10/07 03:38:05;;;;;;;13.50;7.32;;;;;;;13.99;100.00;97227.28;5043659;28;20224;-72
2022/10/07 03:40:32;;;;;;;13.93;7.13;;;;;;;13.95;100.00;97220.69;5044288;28;20336;-72
2022/10/07 03:42:58;;;;;;;14.50;6.88;;;;;;;13.93;100.00;97220.03;5043326;28;20205;-72
2022/10/07 03:45:25;;;;;;;11.85;7.25;;;;;;;13.94;100.00;97220.84;5044319;28;20681;-73
2022/10/07 03:47:53;;;;;;;12.38;6.80;;;;;;;14.02;100.00;97219.78;5045816;28;20207;-72
2022/10/07 03:50:19;;;;;;;14.00;7.07;;;;;;;13.95;100.00;97219.84;5047534;28;20500;-72
2022/10/07 03:52:46;;;;;;;11.82;6.97;;;;;;;13.95;100.00;97226.00;5047306;28;20209;-72
2022/10/07 03:55:12;;;;;;;13.30;7.22;;;;;;;13.92;100.00;97210.41;5047979;28;20225;-72
2022/10/07 03:57:52;;;;;;;18.40;7.68;;;;;;;13.93;100.00;97217.38;5047907;28;20208;-72
2022/10/07 04:00:20;;;;;;;12.70;7.35;;;;;;;13.97;100.00;97210.72;5047675;28;20717;-72
2022/10/07 04:02:47;;;;;;;12.40;7.20;;;;;;;13.89;100.00;97215.25;5047103;28;20220;-72
2022/10/07 04:05:16;;;;;;;12.73;6.90;;;;;;;13.94;100.00;97207.59;5048000;28;20197;-72
2022/10/07 04:07:43;;;;;;;12.18;7.18;;;;;;;13.84;100.00;97209.66;5047567;28;20204;-72
2022/10/07 04:10:10;;;;;;;14.52;7.25;;;;;;;13.88;100.00;97209.13;5047441;28;20229;-72
2022/10/07 04:12:37;;;;;;;13.82;7.03;;;;;;;13.82;100.00;97204.50;5047119;28;20262;-72
2022/10/07 04:15:04;;;;;;;12.90;7.60;;;;;;;13.91;100.00;97200.00;5047695;28;20244;-72
2022/10/07 04:17:31;;;;;;;15.73;8.00;;;;;;;13.89;100.00;97205.47;5047394;28;20658;-72
2022/10/07 04:19:58;;;;;;;15.25;7.30;;;;;;;13.88;100.00;97203.81;5047189;28;20208;-72
2022/10/07 04:22:26;;;;;;;23.20;8.32;;;;;;;13.97;100.00;97200.13;5044843;28;20208;-73
2022/10/07 04:27:33;;;;;;;14.82;7.90;;;;;;;13.84;100.00;97202.50;5045108;28;20207;-71
2022/10/07 04:29:59;;;;;;;16.25;8.02;;;;;;;13.87;100.00;97194.22;5044906;28;20453;-72
2022/10/07 04:32:26;;;;;;;17.27;7.95;;;;;;;13.90;100.00;97195.69;5044886;28;20617;-74
2022/10/07 04:34:52;;;;;;;16.52;7.93;;;;;;;13.87;100.00;97194.22;5045011;28;20712;-74
2022/10/07 04:37:19;;;;;;;15.00;8.07;;;;;;;13.87;100.00;97201.34;5045531;28;20208;-74
2022/10/07 04:39:47;;;;;;;14.45;7.47;;;;;;;13.91;100.00;97190.22;5045313;28;20583;-72
2022/10/07 04:43:17;;;;;;;14.85;7.85;;;;;;;13.86;100.00;97192.59;5044754;28;20240;-72
2022/10/07 04:45:00;;;;;;;11.98;7.38;;;;;;;13.87;100.00;97191.56;5044782;28;20270;-72
2022/10/07 04:47:27;;;;;;;12.25;7.47;;;;;;;13.83;100.00;97190.25;5044972;28;20676;-73
2022/10/07 04:49:54;;;;;;;15.20;7.60;;;;;;;13.83;100.00;97190.25;5045182;28;20213;-72
2022/10/07 04:52:20;;;;;;;15.20;7.35;;;;;;;13.80;100.00;97187.97;5044182;28;20688;-71
2022/10/07 04:54:48;;;;;;;15.07;7.45;;;;;;;13.87;100.00;97180.16;5044974;28;20248;-74
2022/10/07 04:57:15;;;;;;;13.15;7.65;;;;;;;13.77;100.00;97184.84;5044847;28;20231;-74
2022/10/07 04:59:41;;;;;;;13.07;6.75;;;;;;;13.74;100.00;97183.34;5043391;28;20194;-71
2022/10/07 05:02:08;;;;;;;14.80;7.72;;;;;;;13.73;100.00;97179.06;5044444;28;20235;-73
2022/10/07 05:04:34;;;;;;;11.77;6.90;;;;;;;13.74;100.00;97185.19;5044509;28;20200;-72
2022/10/07 05:07:01;;;;;;;12.50;7.30;;;;;;;13.72;100.00;97180.06;5044271;28;20674;-71
2022/10/07 05:09:27;;;;;;;14.18;6.82;;;;;;;13.75;100.00;97181.56;5044678;28;20201;-73
2022/10/07 05:11:55;;;;;;;16.30;7.85;;;;;;;13.75;100.00;97178.91;5044414;28;20236;-72
2022/10/07 05:14:22;;;;;;;15.25;7.22;;;;;;;13.72;100.00;97171.28;5043653;28;20247;-74
2022/10/07 05:16:48;;;;;;;14.38;7.40;;;;;;;13.74;100.00;97174.59;5044358;28;20211;-74
2022/10/07 05:19:15;;;;;;;13.90;7.10;;;;;;;13.77;100.00;97175.09;5044581;28;20201;-71
2022/10/07 05:21:42;;;;;;;11.00;7.25;;;;;;;13.70;100.00;97165.34;5044315;28;20217;-72
2022/10/07 05:24:08;;;;;;;11.95;6.90;;;;;;;13.66;100.00;97167.50;5043747;28;20201;-72
2022/10/07 05:26:35;;;;;;;16.30;7.03;;;;;;;13.68;100.00;97165.53;5044321;28;20205;-71
2022/10/07 05:29:03;;;;;;;15.05;7.40;;;;;;;13.71;100.00;97169.63;5043868;28;20861;-71
2022/10/07 05:31:30;;;;;;;13.38;7.22;;;;;;;13.60;100.00;97164.72;5043703;28;20213;-72
2022/10/07 05:33:56;;;;;;;14.45;7.53;;;;;;;13.58;100.00;97170.22;5043451;28;20232;-71
2022/10/07 05:36:23;;;;;;;11.98;7.00;;;;;;;13.59;100.00;97166.56;5044074;28;20201;-73
2022/10/07 05:38:52;;;;;;;13.07;7.63;;;;;;;13.64;100.00;97164.19;5044099;28;20639;-73
2022/10/07 05:41:20;;;;;;;12.07;7.40;;;;;;;13.59;100.00;97171.88;5043627;28;20221;-71
2022/10/07 05:43:47;;;;;;;14.02;7.75;;;;;;;13.63;100.00;97174.97;5043321;28;20611;-71
2022/10/07 05:46:16;;;;;;;17.13;7.40;;;;;;;13.74;100.00;97172.75;5043630;28;20696;-74
2022/10/07 05:48:46;;;;;;;14.80;7.43;;;;;;;13.69;100.00;97167.16;5043595;28;20208;-72
2022/10/07 05:51:12;;;;;;;11.88;6.82;;;;;;;13.60;100.00;97172.69;5043532;28;20468;-71
2022/10/07 05:53:40;;;;;;;15.23;7.65;;;;;;;13.68;100.00;97165.53;5043081;28;20266;-71
2022/10/07 05:56:08;;;;;;;14.57;6.53;;;;;;;13.69;100.00;97161.03;5043720;28;20290;-72
2022/10/07 05:58:35;;;;;;;15.60;6.82;;;;;;;13.70;100.00;97157.41;5043877;28;20478;-71
2022/10/07 06:01:05;;;;;;;14.50;7.07;;;;;;;13.76;100.00;97159.34;5043495;28;20275;-72
2022/10/07 06:03:33;;;;;;;11.68;6.93;;;;;;;13.83;100.00;97158.47;5042935;28;20212;-73
2022/10/07 06:06:00;;;;;;;9.77;6.32;;;;;;;13.74;100.00;97159.50;5043470;28;20201;-71
2022/10/07 06:08:27;;;;;;;11.30;7.05;;;;;;;13.76;100.00;97154.03;5043544;28;20198;-71
2022/10/07 06:13:38;;;;;;;17.88;6.95;;;;;;;13.65;100.00;97152.59;5042838;28;20212;-73
2022/10/07 06:16:06;;;;;;;11.68;6.93;;;;;;;13.78;100.00;97155.50;5042952;28;20205;-71
2022/10/07 06:18:35;;;;;;;13.50;6.97;;;;;;;13.81;100.00;97149.88;5043251;28;20390;-72
2022/10/07 06:21:02;;;;;;;12.55;7.53;;;;;;;13.78;100.00;97160.00;5042851;28;20225;-71
2022/10/07 06:23:30;;;;;;;13.27;6.65;;;;;;;13.72;100.00;97153.59;5042665;28;20818;-72
2022/10/07 06:25:58;;;;;;;13.25;6.40;;;;;;;13.87;100.00;97164.25;5043230;28;20207;-71
2022/10/07 06:28:25;;;;;;;15.00;5.85;;;;;;;13.75;100.00;97160.34;5043247;28;20203;-71
2022/10/07 06:30:52;;;;;;;12.35;6.43;;;;;;;13.67;100.00;97163.03;5042954;28;20360;-74
2022/10/07 06:33:19;;;;;;;16.73;7.13;;;;;;;13.67;100.00;97157.72;5042385;28;20201;-71
2022/10/07 06:35:47;;;;;;;11.70;5.70;;;;;;;13.72;100.00;97164.19;5042712;28;20232;-72
2022/10/07 06:38:14;;;;;;;10.43;6.20;;;;;;;13.66;100.00;97167.50;5042975;28;20201;-73
2022/10/07 06:40:40;;;;;;;11.85;6.43;;;;;;;13.63;100.00;97159.06;5042977;28;20221;-72
2022/10/07 06:43:06;;;;;;;11.23;6.32;;;;;;;13.78;100.00;97163.47;5042369;28;20201;-71
2022/10/07 06:45:33;;;;;;;14.18;5.72;;;;;;;13.91;100.00;97161.06;5042574;28;20197;-71
2022/10/07 06:48:00;;;;;;;12.95;6.38;;;;;;;13.88;100.00;97158.78;5042774;28;20209;-74
2022/10/07 06:50:27;;;;;;;11.48;6.90;;;;;;;13.90;100.00;97162.09;5042509;28;20225;-71
2022/10/07 06:52:54;;;;;;;15.20;6.95;;;;;;;13.99;100.00;97163.69;5041728;28;20665;-71
2022/10/07 06:55:21;;;;;;;12.27;6.28;;;;;;;13.83;100.00;97161.13;5042484;28;20217;-71
2022/10/07 06:57:47;;;;;;;10.73;6.07;;;;;;;13.92;100.00;97165.38;5042980;28;20205;-72
2022/10/07 07:00:14;;;;;;;8.25;5.15;;;;;;;14.12;100.00;97159.47;5042360;28;20615;-71
2022/10/07 07:02:41;;;;;;;10.07;5.40;;;;;;;14.11;100.00;97164.94;5041882;28;20266;-72
2022/10/07 07:05:08;;;;;;;8.65;5.30;;;;;;;14.23;100.00;97164.38;5042498;28;20208;-72
2022/10/07 07:07:35;;;;;;;9.57;5.60;;;;;;;14.24;100.00;97162.53;5042485;28;20362;-72
2022/10/07 07:10:03;;;;;;;10.45;6.43;;;;;;;14.33;100.00;97164.13;5042504;28;20213;-74
2022/10/07 07:12:29;;;;;;;9.55;6.30;;;;;;;14.27;100.00;97160.34;5041946;28;20201;-71
2022/10/07 07:14:56;;;;;;;13.00;6.88;;;;;;;14.32;100.00;97155.34;5042175;28;20233;-71
2022/10/07 07:17:22;;;;;;;9.80;5.90;;;;;;;14.41;100.00;97164.03;5042433;28;20577;-71
2022/10/07 07:19:49;;;;;;;13.88;5.88;;;;;;;14.46;100.00;97157.22;5042222;28;20202;-72
2022/10/07 07:22:15;;;;;;;11.70;6.30;;;;;;;14.50;100.00;97160.31;5041025;28;20601;-71
2022/10/07 07:24:42;;;;;;;13.25;6.55;;;;;;;14.55;100.00;97150.00;5042478;28;20190;-72
2022/10/07 07:27:13;;;;;;;12.60;6.68;;;;;;;14.50;100.00;97147.06;5042228;28;20205;-73
2022/10/07 07:29:39;;;;;;;13.20;7.07;;;;;;;14.60;100.00;97148.50;5042291;28;20212;-73
2022/10/07 07:32:07;;;;;;;14.10;7.00;;;;;;;14.66;100.00;97145.94;5041788;28;20524;-71
2022/10/07 07:34:35;;;;;;;18.95;6.53;;;;;;;14.71;100.00;97151.53;5041600;28;20231;-73
2022/10/07 07:37:01;;;;;;;11.10;5.95;;;;;;;14.81;100.00;97149.41;5042359;28;20205;-74
2022/10/07 07:39:28;;;;;;;12.23;6.05;;;;;;;14.86;100.00;97151.53;5042119;28;20674;-71
2022/10/07 07:41:55;;;;;;;29.38;14.32;;;;;;;14.97;100.00;97146.63;5042525;28;20228;-72
2022/10/07 07:44:22;;;;;;;20.90;8.15;;;;;;;15.16;100.00;97139.94;5041828;28;20205;-71
2022/10/07 07:46:51;;;;;;;14.80;6.72;;;;;;;15.24;100.00;97138.88;5041486;28;20215;-72
2022/10/07 07:49:18;;;;;;;14.90;6.05;;;;;;;15.13;100.00;97137.66;5041803;28;20303;-71
2022/10/07 07:51:45;;;;;;;15.45;7.43;;;;;;;15.06;100.00;97142.88;5042106;28;20228;-74
2022/10/07 07:54:12;;;;;;;15.48;7.05;;;;;;;15.23;100.00;97139.06;5041502;28;20223;-71
2022/10/07 07:56:39;;;;;;;19.52;7.35;;;;;;;15.14;100.00;97142.78;5041629;28;20216;-74
2022/10/07 07:59:06;;;;;;;18.92;8.25;;;;;;;15.27;100.00;97137.66;5041849;28;20205;-72
2022/10/07 08:01:35;;;;;;;21.63;7.68;;;;;;;15.40;100.00;97140.50;5042148;28;20225;-72
2022/10/07 08:04:02;;;;;;;17.20;7.85;;;;;;;15.49;100.00;97145.53;5041483;28;20216;-71
2022/10/07 08:06:30;;;;;;;17.42;8.35;;;;;;;15.67;100.00;97145.13;5041692;28;20758;-72
2022/10/07 08:08:58;;;;;;;17.42;7.88;;;;;;;15.77;100.00;97135.03;5041728;28;20205;-75
2022/10/07 08:11:25;;;;;;;15.38;7.03;;;;;;;15.71;100.00;97141.13;5041845;28;20232;-73
2022/10/07 08:13:52;;;;;;;29.20;9.88;;;;;;;15.64;100.00;97137.53;5041112;28;20211;-71
2022/10/07 08:16:20;;;;;;;26.83;8.95;;;;;;;15.75;100.00;97129.09;5041890;28;20228;-71
2022/10/07 08:18:49;;;;;;;30.15;9.68;;;;;;;15.79;100.00;97133.03;5041443;28;20209;-74
2022/10/07 08:21:18;;;;;;;29.40;9.60;;;;;;;15.74;100.00;97133.56;5041534;28;20227;-72
2022/10/07 08:23:46;;;;;;;23.95;8.10;;;;;;;15.99;100.00;97129.56;5041051;28;20205;-73
2022/10/07 08:26:13;;;;;;;18.38;7.97;;;;;;;16.04;100.00;97132.50;5041648;28;20207;-75
2022/10/07 08:28:40;;;;;;;22.40;8.27;;;;;;;16.20;100.00;97137.53;5041635;28;20197;-74
2022/10/07 08:31:10;;;;;;;20.33;8.18;;;;;;;16.32;100.00;97131.56;5041602;28;20601;-73
2022/10/07 08:33:40;;;;;;;18.58;8.57;;;;;;;16.42;100.00;97137.41;5042731;28;21297;-71
2022/10/07 08:36:12;;;;;;;15.82;7.50;;;;;;;16.40;100.00;97128.78;5045005;28;20507;-72
2022/10/07 08:38:40;;;;;;;16.92;7.03;;;;;;;16.44;100.00;97126.56;5044961;28;20565;-73
2022/10/07 08:41:19;;;;;;;13.70;7.15;;;;;;;16.62;100.00;97128.56;5045232;28;20395;-70
2022/10/07 08:43:48;;;;;;;13.98;6.97;;;;;;;16.70;100.00;97125.75;5044524;28;20205;-71
2022/10/07 08:46:18;;;;;;;25.50;9.93;;;;;;;16.76;100.00;97119.69;5045182;28;20561;-71
2022/10/07 08:48:52;;;;;;;24.27;9.35;;;;;;;17.03;100.00;97123.31;5044989;28;20205;-74
2022/10/07 08:51:25;;;;;;;19.30;7.78;;;;;;;17.00;100.00;97121.06;5044424;28;20228;-72
2022/10/07 08:53:55;;;;;;;13.23;6.68;;;;;;;17.05;97.34;97113.31;5044430;28;20286;-71
2022/10/07 08:56:24;;;;;;;14.80;7.18;;;;;;;17.07;99.82;97103.28;5044912;28;20221;-73
2022/10/07 08:59:05;;;;;;;15.52;7.13;;;;;;;16.97;100.00;97094.81;5044963;28;20588;-70
2022/10/07 09:01:46;;;;;;;13.05;6.40;;;;;;;17.08;100.00;97107.59;5044558;28;20217;-74
2022/10/07 09:04:25;;;;;;;15.75;6.88;;;;;;;17.03;100.00;97094.88;5043999;28;20203;-71
2022/10/07 09:06:59;;;;;;;12.25;6.22;;;;;;;17.38;98.37;97094.66;5044738;28;20209;-71
2022/10/07 09:09:32;;;;;;;10.48;5.90;;;;;;;17.64;98.63;97089.44;5044645;28;20201;-70
2022/10/07 09:12:00;;;;;;;15.35;7.00;;;;;;;17.55;95.96;97093.28;5044378;28;20290;-71
2022/10/07 09:14:29;;;;;;;9.98;6.05;;;;;;;17.70;94.80;97093.97;5044035;28;20197;-71
2022/10/07 09:17:01;;;;;;;11.70;6.20;;;;;;;17.73;92.52;97098.88;5044288;28;20701;-71
2022/10/07 09:19:31;;;;;;;17.05;6.25;;;;;;;17.68;93.07;97095.19;5044668;28;20205;-70
2022/10/07 09:22:07;;;;;;;12.25;6.05;;;;;;;17.65;93.30;97092.94;5044727;28;20221;-70
2022/10/07 09:24:35;;;;;;;13.25;6.15;;;;;;;17.40;94.51;97091.78;5043719;28;20287;-70
2022/10/07 09:27:08;;;;;;;14.55;6.45;;;;;;;17.58;96.72;97081.41;5044308;28;20368;-70
2022/10/07 09:29:36;;;;;;;16.83;7.25;;;;;;;17.61;96.90;97081.03;5044082;28;20260;-70
2022/10/07 09:32:02;;;;;;;14.68;6.45;;;;;;;17.65;96.35;97080.41;5043978;28;20550;-71
2022/10/07 09:34:31;;;;;;;14.63;6.97;;;;;;;17.71;96.73;97082.28;5043470;28;20205;-72
2022/10/07 09:37:15;;;;;;;14.57;7.13;;;;;;;18.24;93.50;97076.06;5044393;28;20224;-71
2022/10/07 09:39:44;;;;;;;12.20;6.82;;;;;;;18.28;93.63;97072.81;5044151;28;20652;-71
2022/10/07 09:42:22;;;;;;;15.50;7.22;;;;;;;18.41;92.69;97070.13;5043574;28;20421;-70
2022/10/07 09:44:51;;;;;;;15.18;8.10;;;;;;;18.30;92.11;97064.59;5043201;28;20557;-71
2022/10/07 09:47:22;;;;;;;15.38;7.15;;;;;;;18.61;91.95;97071.78;5044120;28;20201;-71
2022/10/07 09:49:51;;;;;;;13.95;7.18;;;;;;;18.42;90.50;97075.25;5043467;28;20217;-74
2022/10/07 09:52:22;;;;;;;16.33;7.13;;;;;;;18.27;91.03;97075.69;5043610;28;20201;-71
2022/10/07 09:54:51;;;;;;;14.32;7.28;;;;;;;18.53;92.06;97072.00;5043857;28;20213;-74
2022/10/07 09:57:31;;;;;;;16.58;7.90;;;;;;;18.83;90.15;97067.84;5043454;28;20641;-71
2022/10/07 10:00:22;;;;;;;14.43;7.90;;;;;;;19.09;86.30;97071.31;5043292;28;20201;-72
2022/10/07 10:02:51;;;;;;;15.38;8.32;;;;;;;19.03;86.70;97068.63;5043005;28;20443;-70
2022/10/07 10:05:22;;;;;;;13.82;7.43;;;;;;;19.25;85.97;97060.16;5043318;28;20292;-71
2022/10/07 10:07:53;;;;;;;13.13;7.55;;;;;;;19.29;85.80;97057.91;5043358;28;20212;-71
2022/10/07 10:10:23;;;;;;;13.68;7.90;;;;;;;19.23;84.69;97061.41;5043194;28;20224;-71
2022/10/07 10:12:51;;;;;;;16.83;7.88;;;;;;;19.21;86.06;97063.47;5042608;28;20577;-71
2022/10/07 10:15:26;;;;;;;16.42;8.05;;;;;;;19.33;86.32;97054.56;5043258;28;20221;-72
2022/10/07 10:17:55;;;;;;;14.48;6.93;;;;;;;19.15;87.81;97035.72;5043509;28;20204;-71
2022/10/07 10:20:30;;;;;;;12.10;7.10;;;;;;;19.39;84.92;97050.25;5043126;28;20220;-70
2022/10/07 10:23:00;;;;;;;16.10;7.38;;;;;;;19.18;84.08;97050.53;5042696;28;20211;-74
2022/10/07 10:28:37;;;;;;;13.98;7.70;;;;;;;19.10;84.75;97046.22;5043188;28;20299;-71
2022/10/07 10:31:09;;;;;;;18.00;8.20;;;;;;;18.72;87.73;97032.94;5042835;28;20389;-70
2022/10/07 10:33:43;;;;;;;18.10;7.55;;;;;;;19.02;87.42;97040.28;5042248;28;20209;-73
2022/10/07 10:36:15;;;;;;;19.40;7.70;;;;;;;19.08;86.62;97034.09;5043082;28;20252;-72
2022/10/07 10:38:49;;;;;;;18.05;8.30;;;;;;;18.78;87.19;97032.13;5042937;28;20716;-73
2022/10/07 10:41:26;;;;;;;20.33;8.63;;;;;;;18.64;88.67;97035.84;5042826;28;20599;-71
2022/10/07 10:44:14;;;;;;;18.80;8.38;;;;;;;18.09;90.26;97030.88;5041827;28;20205;-71
2022/10/07 10:46:49;;;;;;;16.95;8.30;;;;;;;18.27;90.14;97027.66;5042802;28;20360;-71
2022/10/07 10:49:24;;;;;;;18.48;7.60;;;;;;;18.18;91.87;97028.88;5042595;28;20208;-71
2022/10/07 10:52:19;;;;;;;15.15;7.82;;;;;;;18.39;92.97;97024.13;5042414;28;20220;-72
2022/10/07 10:55:03;;;;;;;14.10;7.20;;;;;;;18.98;86.22;97020.34;5042518;28;20374;-71
2022/10/07 10:57:42;;;;;;;17.15;7.72;;;;;;;19.20;84.05;97017.22;5041369;28;20246;-72
2022/10/07 11:00:12;;;;;;;14.35;7.05;;;;;;;19.27;84.44;97022.53;5042313;28;20209;-72
2022/10/07 11:03:07;;;;;;;16.25;8.02;;;;;;;19.42;84.25;97015.88;5041912;28;20212;-71
2022/10/07 11:05:36;;;;;;;13.80;7.30;;;;;;;19.21;84.38;97010.03;5041081;28;20201;-71
2022/10/07 11:08:11;;;;;;;19.05;8.18;;;;;;;19.30;82.08;97011.44;5042583;28;20231;-70
2022/10/07 11:10:43;;;;;;;20.42;8.15;;;;;;;19.09;81.54;97003.69;5042366;28;20220;-71
2022/10/07 11:13:26;;;;;;;15.27;7.85;;;;;;;19.01;86.81;97012.72;5041734;28;20207;-70
2022/10/07 11:15:58;;;;;;;16.85;7.88;;;;;;;18.80;86.15;97009.50;5041975;28;20751;-70
2022/10/07 11:18:32;;;;;;;15.40;7.60;;;;;;;19.05;85.41;97002.44;5042280;28;20576;-70
2022/10/07 11:21:01;;;;;;;14.93;7.30;;;;;;;18.68;88.93;96991.66;5042309;28;20226;-71
2022/10/07 11:23:44;;;;;;;15.65;7.47;;;;;;;18.82;86.62;96987.94;5041683;28;20204;-70
2022/10/07 11:26:18;;;;;;;17.67;9.10;;;;;;;19.06;85.25;96990.75;5042366;28;20596;-71
2022/10/07 11:28:46;;;;;;;17.30;8.43;;;;;;;18.99;85.27;96995.25;5042271;28;20691;-71
2022/10/07 11:31:21;;;;;;;15.88;8.07;;;;;;;19.17;88.76;96980.25;5041900;28;20232;-70
2022/10/07 11:33:52;;;;;;;18.45;8.20;;;;;;;19.14;84.28;96980.66;5041561;28;20668;-71
2022/10/07 11:36:24;;;;;;;16.50;8.75;;;;;;;18.96;85.99;96983.19;5042085;28;20221;-71
2022/10/07 11:38:52;;;;;;;23.58;8.77;;;;;;;18.77;87.35;96980.53;5042354;28;20212;-71
2022/10/07 11:41:27;;;;;;;18.38;9.40;;;;;;;18.77;88.23;96969.06;5041560;28;20270;-74